Rain radar more information rain snow radar


Visit our other weather sites:

Template documentation
and downloads

And another site



Nearby METAR Reports

   
KTIW - Tacoma, Washington, USA
Distance from station: W 7 mi
Updated: Sep 23 2019 6:53 am
Clear  
Clear  
   Wind: South 12.7 mph
Wind: South 12.7 mph
Temperature: 53.6°F
Dew Point: 50°F
Humidity: 88%
Barometer: 30.11 inHg
Clouds: Clear
Visibility: 10 mi
Cloud details: Clear m
KTIW 231353Z AUTO 18011KT 10SM CLR 12/10 A3011 RMK AO2 SLP196 T01220100
KTCM - Tacoma/Mc Chord, Washington, USA
Distance from station: S 9 mi
Updated: Sep 23 2019 6:58 am
Overcast  
Overcast  
   Wind: South 10.4 mph
Wind: South 10.4 mph
Temperature: 53.6°F
Dew Point: 53.6°F
Humidity: 100%
Barometer: 30.13 inHg
Clouds: Overcast
Visibility: 10 mi
Cloud details: Overcast 3658 m
KTCM 231358Z AUTO 18009KT 10SM OVC120 12/12 A3013 RMK AO2 SLP207 T01230121 $
KSEA - Seattle/Metro, Washington, USA
Distance from station: NNE 15 mi
Updated: Sep 23 2019 6:53 am
Mostly Cloudy  
Mostly Cloudy  
   Wind: South 15 mph
Wind: South 15 mph
Temperature: 55.4°F
Dew Point: 48.2°F
Humidity: 77%
Barometer: 30.11 inHg
Clouds: Mostly Cloudy
Visibility: 10 mi
Cloud details: Few Clouds 610 m,
Partly Cloudy 1676 m,
Mostly Cloudy 3658 m,
Mostly Cloudy 7620 m
KSEA 231353Z 18013KT 10SM FEW020 SCT055 BKN120 BKN250 13/09 A3011 RMK AO2 SLP202 T01330094
KBFI - Seattle/Boeing, Washington, USA
Distance from station: NNE 21 mi
Updated: Sep 23 2019 6:53 am
Haze, Few Clouds  
Haze, Few Clouds  
   Wind: SSE 10.4 mph
Wind: SSE 10.4 mph
Temperature: 55.4°F
Dew Point: 50°F
Humidity: 82%
Barometer: 30.11 inHg
Clouds: Few Clouds
Visibility: 10 mi
Cloud details: Few Clouds 640 m
KBFI 231353Z 16009KT 10SM HZ FEW021 13/10 A3011 RMK AO2 SLP197 T01330100 $
KOLM - Olympia, Washington, USA
Distance from station: SW 29 mi
Updated: Sep 23 2019 6:54 am
Clear  
Clear  
   Wind: SSW 10.4 mph
Wind: SSW 10.4 mph
Temperature: 53.6°F
Dew Point: 50°F
Humidity: 88%
Barometer: 30.13 inHg
Clouds: Clear
Visibility: 10 mi
Cloud details: Clear m
KOLM 231354Z AUTO 20009KT 10SM CLR 12/10 A3013 RMK AO2 SLP202 T01170100
 

Script developed by  Saratoga-weather.org Adapted for the template by  Weerstation Leuven

You find our weather info also at:

Weather Underground

WeatherlinkIP

Citizen Weather Observer Program (CWOP)

Equipment we use:

Weather-station
Davis VP2

Weather-program
Meteobridge

Provider
MDD Hosting

Davis VP2

Meteobridge

MDD Hosting